This is the latest recevied weather packets stored in our database for station/object KE0SWK-13. If no packets are shown the sender has not sent any weather packets the latest 10 day(s).
| Time | Temp. | Humidity | Pressure | Rain* | Wind** | Luminosity | Snow |
|---|---|---|---|---|---|---|---|
| 1778033140 | 7.22° C | 89% | 1014.9 hPa | 0 mm | - | - | - |
| 1778030126 | 7.22° C | 88% | 1014.2 hPa | 0 mm | - | - | - |
| 1778025924 | 7.22° C | 90% | 1013.9 hPa | 1.27 mm | - | - | - |
| 1778023546 | 7.78° C | 89% | 1014 hPa | 1.27 mm | - | - | - |
| 1778022927 | 7.78° C | 87% | 1013.9 hPa | 1.27 mm | - | - | - |
| 1778021744 | 7.78° C | 87% | 1013.9 hPa | 2.29 mm | - | - | - |
| 1778021133 | 7.78° C | 86% | 1013.6 hPa | 2.03 mm | - | - | - |
| 1778013923 | 8.89° C | 88% | 1013.9 hPa | 2.03 mm | - | - | - |
| 1778011531 | 8.33° C | 86% | 1013.7 hPa | 0.76 mm | - | - | - |
| 1778010328 | 8.33° C | 85% | 1013.6 hPa | 0.25 mm | - | - | - |
| 1778006720 | 8.33° C | 86% | 1013.9 hPa | 0.51 mm | - | - | - |
| 1778003133 | 8.33° C | 80% | 1014.3 hPa | 0.25 mm | - | - | - |
| 1778000153 | 8.89° C | 83% | 1013.6 hPa | 0.25 mm | - | - | - |
| 1777995362 | 9.44° C | 89% | 1013.1 hPa | 1.78 mm | - | - | - |
| 1777989919 | 9.44° C | 81% | 1012.3 hPa | 0.25 mm | - | - | - |
| 1777988769 | 10° C | 83% | 1011.8 hPa | 1.27 mm | - | - | - |
| 1777986925 | 8.89° C | 86% | 1011.3 hPa | 1.27 mm | - | - | - |
| 1777981537 | 8.89° C | 88% | 1010 hPa | 0 mm | - | - | - |
| 1777977333 | 9.44° C | 91% | 1011.2 hPa | 0 mm | - | - | - |
| 1777971323 | 10° C | 88% | 1008.8 hPa | 7.62 mm | - | - | - |
| 1777969524 | 11.11° C | 87% | 1010.1 hPa | 5.33 mm | - | - | - |
| 1777958123 | 20° C | 64% | 1005.1 hPa | 0 mm | - | - | - |
| 1777952728 | 21.11° C | 60% | 1006.5 hPa | 0 mm | - | - | - |
| 1777949724 | 22.22° C | 58% | 1006.3 hPa | 0 mm | - | - | - |
| 1777948520 | 22.78° C | 57% | 1006 hPa | 0 mm | - | - | - |
* Rain latest hour (hover to see other rain measurements)
** Current wind speed in m/s (hover to see current wind gust speed)